»·PEaware :: CAX357 MMES-KOKB

CAX357 :: MMES-KOKB

FLIGHT INFORMATION

Flight Status: Arrived
Operator:
California Airlines (website)
More flights by this operator :: More flights under this callsign
Pilot: Brandon K. (3556)
Aircraft: CESSNA 206 STATIONAIR
(C206)
More flights by this aircraft type
Origin: MMES Ensenada Intl
Mexico
Destination: KOKB Oceanside Mun
United States
More flights between these airports :: More routes between these airports
Route: TIJ PGY V317 MZB V23 OCN
File this flight plan on PilotEdge
Remarks:
Altitude:
(Current/Filed)
12,500ft
Speed:
(Current/Filed)
150kts
Departed: 05-Dec-14 12:50 PM
Arrived: 05-Dec-14 01:35 PM
Distance/Time
Traveled:
93nm/0:45
Distance/Time
To Go:
Arrived

Flight Plot

Page will automatically refresh every two minutes.


Map Options




Map Legend


Flown Route
Filed Route
Departure Airport
Arrival Airport
Navaid (VOR, NDB)
Fix

Horizontal Profiles

Position Reports

Time Latitude Longitude Heading Altitude Ground
Speed
05-Dec-14 12:38 31.799973 -116.596879 150 69ft 0kts
05-Dec-14 12:39 31.799973 -116.596879 150 69ft 0kts
05-Dec-14 12:40 31.799973 -116.596879 150 69ft 0kts
05-Dec-14 12:41 31.799973 -116.596879 150 69ft 0kts
05-Dec-14 12:42 31.799898 -116.596856 181 69ft 2kts
05-Dec-14 12:43 31.798370 -116.596490 164 69ft 15kts
05-Dec-14 12:44 31.794875 -116.596120 177 69ft 10kts
05-Dec-14 12:45 31.791686 -116.595968 188 69ft 3kts
05-Dec-14 12:46 31.791587 -116.596665 302 69ft 25kts
05-Dec-14 12:47 31.805034 -116.622829 315 928ft 116kts
05-Dec-14 12:48 31.838578 -116.631667 343 1891ft 127kts
05-Dec-14 12:49 31.872399 -116.644172 338 2894ft 128kts
05-Dec-14 12:50 31.905682 -116.658715 337 3913ft 128kts
05-Dec-14 12:51 31.938873 -116.673812 336 4928ft 128kts
05-Dec-14 12:52 31.972206 -116.689130 336 5947ft 129kts
05-Dec-14 12:53 32.005537 -116.704496 336 6944ft 129kts
05-Dec-14 12:54 32.039008 -116.719949 336 7939ft 130kts
05-Dec-14 12:55 32.072638 -116.735489 336 8938ft 130kts
05-Dec-14 12:56 32.106443 -116.751123 335 9936ft 131kts
05-Dec-14 12:57 32.139820 -116.766571 335 10916ft 131kts
05-Dec-14 12:58 32.173954 -116.782382 335 11913ft 132kts
05-Dec-14 12:59 32.209606 -116.798948 335 12499ft 153kts
05-Dec-14 13:00 32.251014 -116.818116 335 12499ft 162kts
05-Dec-14 13:01 32.292294 -116.837266 335 12499ft 163kts
05-Dec-14 13:02 32.331166 -116.855334 335 12498ft 163kts
05-Dec-14 13:03 32.371470 -116.874092 336 12498ft 163kts
05-Dec-14 13:04 32.410540 -116.892288 336 12497ft 163kts
05-Dec-14 13:05 32.449157 -116.910291 336 12496ft 162kts
05-Dec-14 13:06 32.488005 -116.928415 336 12494ft 162kts
05-Dec-14 13:07 32.528104 -116.947132 335 12493ft 164kts
05-Dec-14 13:08 32.570934 -116.964413 339 12501ft 166kts
05-Dec-14 13:09 32.613246 -116.985151 310 12492ft 164kts
05-Dec-14 13:10 32.641263 -117.023843 307 12487ft 164kts
05-Dec-14 13:11 32.670398 -117.065388 307 12485ft 163kts
05-Dec-14 13:12 32.699032 -117.106370 307 12487ft 163kts
05-Dec-14 13:13 32.727924 -117.147444 307 12490ft 164kts
05-Dec-14 13:14 32.755810 -117.187442 307 12493ft 165kts
05-Dec-14 13:15 32.786812 -117.226783 334 12492ft 169kts
05-Dec-14 13:16 32.830845 -117.245720 338 12495ft 169kts
05-Dec-14 13:17 32.874925 -117.264147 338 12494ft 167kts
05-Dec-14 13:18 32.918683 -117.282457 339 12493ft 167kts
05-Dec-14 13:19 32.962670 -117.300874 340 12492ft 168kts
05-Dec-14 13:20 33.006447 -117.319218 340 12491ft 169kts
05-Dec-14 13:21 33.051272 -117.338017 340 12061ft 174kts
05-Dec-14 13:22 33.096435 -117.356871 340 10545ft 146kts
05-Dec-14 13:23 33.128290 -117.370191 340 9032ft 114kts
05-Dec-14 13:24 33.156505 -117.381986 340 7582ft 111kts
05-Dec-14 13:25 33.172715 -117.400259 254 6325ft 109kts
05-Dec-14 13:26 33.156163 -117.389519 47 4565ft 107kts
05-Dec-14 13:27 33.177917 -117.374301 34 3320ft 118kts
05-Dec-14 13:28 33.211746 -117.366233 0 1573ft 107kts
05-Dec-14 13:29 33.229988 -117.350651 77 990ft 75kts
05-Dec-14 13:30 33.230745 -117.330259 136 823ft 78kts
05-Dec-14 13:31 33.219704 -117.340484 259 213ft 63kts
05-Dec-14 13:32 33.217610 -117.352148 179 32ft 5kts
05-Dec-14 13:33 33.217359 -117.351615 77 32ft 0kts
05-Dec-14 13:34 33.217359 -117.351615 77 32ft 0kts

Navigation Log

Ident Type
Flight plan parsing failed, navigation log unavailable